Time;durP1;ratioP1;P1;durP2;ratioP2;P2;SDS_P1;SDS_P2;PMS_P1;PMS_P2;Temp;Humidity;BMP_temperature;BMP_pressure;BME280_temperature;BME280_humidity;BME280_pressure;Samples;Min_cycle;Max_cycle;Signal;HPM_P1;HPM_P2
2022/08/31 00:09:44;;;;;;;9.95;3.35;;;28.70;29.10;;;;;;20995663;28;20045;-57
2022/08/31 00:19:47;;;;;;;10.27;3.45;;;28.70;29.60;;;;;;20995316;28;20055;-58
2022/08/31 00:29:48;;;;;;;8.25;3.25;;;28.60;28.70;;;;;;20994591;28;20052;-59
2022/08/31 00:39:51;;;;;;;9.00;3.50;;;28.50;29.30;;;;;;20994253;28;20048;-57
2022/08/31 00:49:53;;;;;;;9.23;3.10;;;28.40;29.30;;;;;;21009169;28;20045;-57
2022/08/31 00:59:55;;;;;;;8.07;2.53;;;28.30;28.70;;;;;;21009887;28;20385;-56
2022/08/31 01:09:58;;;;;;;6.20;2.65;;;28.10;28.40;;;;;;21010465;28;20055;-56
2022/08/31 01:20:22;;;;;;;10.85;6.32;;;28.10;27.30;;;;;;21008559;28;20052;-60
2022/08/31 01:30:25;;;;;;;6.95;2.00;;;27.80;27.60;;;;;;21007753;28;20040;-55
2022/08/31 01:40:43;;;;;;;5.50;2.20;;;27.70;26.60;;;;;;21007138;28;20052;-58
2022/08/31 01:50:44;;;;;;;9.20;2.95;;;27.60;26.30;;;;;;21006917;28;20504;-55
2022/08/31 02:00:46;;;;;;;4.10;2.28;;;27.40;27.40;;;;;;21006019;28;20562;-57
2022/08/31 02:10:47;;;;;;;5.07;1.80;;;27.40;26.00;;;;;;21004860;28;20128;-57
2022/08/31 02:20:50;;;;;;;6.25;2.33;;;27.20;26.50;;;;;;21003601;28;20052;-60
2022/08/31 02:30:51;;;;;;;3.33;1.85;;;27.10;27.30;;;;;;21003054;28;20546;-54
2022/08/31 02:40:54;;;;;;;5.97;2.20;;;27.10;28.20;;;;;;21003121;28;20527;-57
2022/08/31 02:51:04;;;;;;;4.63;1.92;;;26.90;27.90;;;;;;21001366;28;20055;-56
2022/08/31 03:01:06;;;;;;;3.35;2.13;;;26.90;28.30;;;;;;21000302;28;20061;-59
2022/08/31 03:11:09;;;;;;;2.85;2.08;;;26.70;29.20;;;;;;20999066;28;20055;-56
2022/08/31 03:21:11;;;;;;;7.10;2.20;;;26.70;29.40;;;;;;20998860;28;20178;-56
2022/08/31 03:31:14;;;;;;;3.22;2.00;;;26.60;29.60;;;;;;20998431;28;20048;-55
2022/08/31 03:41:22;;;;;;;3.70;2.22;;;26.40;30.50;;;;;;20997054;28;20139;-54
2022/08/31 03:51:24;;;;;;;7.88;2.90;;;26.40;30.80;;;;;;20997053;28;20045;-58
2022/08/31 04:01:26;;;;;;;4.88;2.25;;;26.20;30.80;;;;;;20996020;28;20044;-60
2022/08/31 04:11:27;;;;;;;3.57;2.20;;;26.00;31.60;;;;;;20996600;28;20053;-56
2022/08/31 04:21:30;;;;;;;5.73;2.30;;;25.80;32.40;;;;;;20995523;28;20713;-60
2022/08/31 04:31:34;;;;;;;6.22;2.65;;;25.60;33.50;;;;;;20995104;28;20087;-57
2022/08/31 04:41:39;;;;;;;4.68;3.00;;;25.60;33.40;;;;;;20994657;28;20061;-59
2022/08/31 04:51:41;;;;;;;4.88;2.10;;;25.50;33.90;;;;;;20995823;28;20059;-56
2022/08/31 05:01:45;;;;;;;6.75;3.47;;;25.40;33.60;;;;;;20995768;28;20455;-58
2022/08/31 05:11:48;;;;;;;12.05;4.72;;;25.20;34.30;;;;;;20993728;28;20170;-58
2022/08/31 05:21:50;;;;;;;7.57;2.45;;;25.10;34.60;;;;;;20993403;28;20109;-55
2022/08/31 05:31:52;;;;;;;7.00;3.00;;;25.00;34.90;;;;;;21001497;28;20055;-59
2022/08/31 05:41:55;;;;;;;4.00;2.67;;;25.00;35.50;;;;;;21007860;28;20819;-56
2022/08/31 05:51:58;;;;;;;6.80;3.38;;;24.90;35.70;;;;;;21008085;28;20595;-57
2022/08/31 06:02:03;;;;;;;4.80;2.63;;;24.60;36.50;;;;;;21005640;28;20063;-55
2022/08/31 06:12:05;;;;;;;8.27;3.83;;;24.60;37.10;;;;;;21004446;28;20052;-56
2022/08/31 06:22:07;;;;;;;6.35;3.70;;;24.40;37.50;;;;;;21005386;28;20052;-58
2022/08/31 06:32:12;;;;;;;9.25;3.90;;;24.40;38.00;;;;;;21003379;28;20068;-57
2022/08/31 06:42:15;;;;;;;7.10;3.10;;;24.40;38.40;;;;;;21002210;28;20526;-57
2022/08/31 06:52:19;;;;;;;12.77;4.10;;;24.40;38.80;;;;;;21001424;28;20044;-59
2022/08/31 07:02:23;;;;;;;8.75;3.55;;;24.50;38.90;;;;;;21000765;28;20480;-57
2022/08/31 07:12:24;;;;;;;6.15;3.00;;;24.70;39.20;;;;;;21000342;28;20142;-59
2022/08/31 07:22:27;;;;;;;7.00;4.13;;;24.90;39.00;;;;;;20998712;28;20136;-58
2022/08/31 07:32:28;;;;;;;6.97;3.17;;;24.90;39.40;;;;;;20998144;28;20041;-57
2022/08/31 07:42:33;;;;;;;12.17;4.60;;;25.00;39.10;;;;;;20997553;28;20520;-57
2022/08/31 07:52:40;;;;;;;10.50;5.10;;;25.10;38.90;;;;;;20997357;28;20049;-58
2022/08/31 08:02:45;;;;;;;13.85;12.45;;;25.50;38.80;;;;;;20997153;28;20416;-61
2022/08/31 08:12:56;;;;;;;7.82;3.40;;;26.10;37.60;;;;;;20995563;28;20052;-57
2022/08/31 08:22:57;;;;;;;7.30;3.50;;;26.40;36.80;;;;;;20995277;28;20496;-58
2022/08/31 08:33:04;;;;;;;13.98;5.50;;;26.70;36.80;;;;;;20994267;28;20083;-58
2022/08/31 08:43:06;;;;;;;6.93;3.50;;;27.00;36.10;;;;;;20994243;28;20139;-59
2022/08/31 08:53:11;;;;;;;11.50;5.90;;;27.20;35.30;;;;;;20995651;28;20037;-56
2022/08/31 09:03:21;;;;;;;6.55;3.38;;;27.40;34.50;;;;;;20996517;28;20159;-58
2022/08/31 09:13:39;;;;;;;8.53;3.77;;;27.60;34.90;;;;;;21009653;28;20040;-56
2022/08/31 09:23:47;;;;;;;11.25;4.60;;;27.60;34.10;;;;;;21009540;28;20397;-60
2022/08/31 09:33:49;;;;;;;9.43;2.78;;;27.80;34.10;;;;;;21007339;28;20051;-58
2022/08/31 09:43:51;;;;;;;6.22;2.97;;;28.20;33.00;;;;;;21006949;28;20144;-56
2022/08/31 10:04:31;;;;;;;7.45;2.72;;;28.50;31.00;;;;;;21005101;28;20049;-58
2022/08/31 10:14:42;;;;;;;7.20;2.80;;;28.60;29.90;;;;;;21002812;28;20056;-59
2022/08/31 10:24:53;;;;;;;9.77;3.20;;;28.80;29.90;;;;;;21003584;28;20045;-55
2022/08/31 10:35:18;;;;;;;7.38;2.72;;;29.10;28.70;;;;;;21002290;28;20127;-58
2022/08/31 10:45:23;;;;;;;6.32;2.38;;;29.20;27.60;;;;;;21001764;28;20089;-59
2022/08/31 10:55:45;;;;;;;6.90;3.00;;;29.30;28.40;;;;;;21000391;28;20573;-59
2022/08/31 11:06:28;;;;;;;5.70;2.13;;;29.40;27.70;;;;;;21000335;28;20060;-56
2022/08/31 11:16:42;;;;;;;10.45;2.40;;;29.50;27.70;;;;;;20999763;28;20060;-59
2022/08/31 11:26:58;;;;;;;6.65;2.70;;;29.80;26.80;;;;;;20998524;28;20413;-59
2022/08/31 11:37:03;;;;;;;8.27;2.38;;;29.80;27.40;;;;;;20997994;28;20053;-60
2022/08/31 11:47:27;;;;;;;6.00;2.30;;;30.10;27.00;;;;;;20997594;28;20056;-57
2022/08/31 11:57:33;;;;;;;6.75;2.80;;;30.20;26.20;;;;;;20997024;28;20607;-59
2022/08/31 12:07:43;;;;;;;10.52;2.95;;;30.40;25.90;;;;;;20997270;28;20127;-59
2022/08/31 12:18:07;;;;;;;4.45;1.80;;;30.60;24.50;;;;;;20994384;28;20055;-57
2022/08/31 12:28:34;;;;;;;6.35;2.17;;;30.50;23.10;;;;;;20994863;28;20127;-57
2022/08/31 12:38:36;;;;;;;7.22;2.22;;;30.80;24.50;;;;;;20998136;28;20083;-56
2022/08/31 12:48:43;;;;;;;8.13;2.38;;;31.00;21.80;;;;;;21011403;28;20080;-56
2022/08/31 12:58:59;;;;;;;4.60;1.73;;;31.00;21.90;;;;;;21011605;28;20084;-57
2022/08/31 13:09:03;;;;;;;3.60;1.50;;;31.00;21.70;;;;;;21011084;28;20052;-56
2022/08/31 13:19:06;;;;;;;3.50;1.52;;;31.20;21.80;;;;;;21009265;28;20136;-59
2022/08/31 13:29:22;;;;;;;5.90;1.90;;;31.40;21.00;;;;;;21008067;28;20124;-59
2022/08/31 13:39:33;;;;;;;5.80;1.40;;;31.60;20.20;;;;;;21006643;28;20130;-61
2022/08/31 13:49:37;;;;;;;;;;;31.60;20.10;;;;;;21006537;28;20542;-59
2022/08/31 13:59:39;;;;;;;3.85;1.42;;;31.60;19.70;;;;;;21005875;28;19920;-61
2022/08/31 14:09:46;;;;;;;4.22;1.95;;;31.60;20.40;;;;;;21006097;28;20041;-57
2022/08/31 14:19:48;;;;;;;5.32;1.40;;;31.60;20.60;;;;;;21005159;28;20049;-61
2022/08/31 14:29:50;;;;;;;4.28;1.88;;;31.60;19.60;;;;;;21003440;28;20466;-62
2022/08/31 14:39:54;;;;;;;2.92;1.60;;;31.60;20.10;;;;;;21004087;28;20127;-57
2022/08/31 14:50:04;;;;;;;4.18;1.45;;;31.60;20.20;;;;;;21002059;28;20147;-58
2022/08/31 15:00:07;;;;;;;5.20;1.52;;;31.60;19.70;;;;;;21000678;28;20052;-59
2022/08/31 15:10:12;;;;;;;4.93;2.00;;;31.80;18.90;;;;;;21000087;28;20123;-60
2022/08/31 15:20:15;;;;;;;4.85;2.10;;;31.80;19.20;;;;;;20999310;28;20511;-61
2022/08/31 15:30:18;;;;;;;3.63;1.60;;;31.70;20.00;;;;;;20998825;28;20048;-57
2022/08/31 15:40:20;;;;;;;3.38;1.75;;;31.80;19.60;;;;;;20998158;28;20056;-61
2022/08/31 15:50:27;;;;;;;4.38;1.75;;;31.90;20.10;;;;;;20997565;28;20444;-60
2022/08/31 16:00:31;;;;;;;5.05;2.92;;;31.90;20.00;;;;;;20997637;28;20087;-60
2022/08/31 16:10:35;;;;;;;8.23;2.20;;;31.90;21.00;;;;;;20996073;28;20052;-61
2022/08/31 16:20:38;;;;;;;3.83;2.13;;;31.90;20.50;;;;;;20995921;28;20056;-59
2022/08/31 16:30:42;;;;;;;6.32;2.17;;;31.80;20.40;;;;;;20994632;28;20131;-60
2022/08/31 16:40:44;;;;;;;3.90;1.95;;;31.90;20.80;;;;;;20994061;28;20044;-59
2022/08/31 16:50:46;;;;;;;3.50;2.00;;;31.90;20.40;;;;;;20995441;28;20044;-62
2022/08/31 17:00:48;;;;;;;2.72;1.70;;;31.70;21.10;;;;;;20993497;28;20496;-60
2022/08/31 17:10:50;;;;;;;3.65;2.10;;;31.70;21.30;;;;;;20993413;28;20044;-58
2022/08/31 17:20:52;;;;;;;2.90;2.00;;;31.60;21.60;;;;;;20992584;28;20053;-61
2022/08/31 17:30:55;;;;;;;6.32;2.10;;;31.50;22.40;;;;;;21005782;28;20047;-56
2022/08/31 17:41:07;;;;;;;4.03;2.00;;;31.40;22.50;;;;;;21007820;28;20087;-56
2022/08/31 17:51:25;;;;;;;4.45;2.22;;;31.30;23.30;;;;;;21008492;28;20131;-58
2022/08/31 18:01:30;;;;;;;5.82;2.35;;;31.10;23.20;;;;;;21008169;28;20052;-57
2022/08/31 18:11:32;;;;;;;8.15;2.97;;;31.00;23.20;;;;;;21005022;28;20074;-59
2022/08/31 18:21:34;;;;;;;3.15;1.80;;;30.90;23.40;;;;;;21003750;28;20052;-57
2022/08/31 18:31:38;;;;;;;3.03;1.83;;;30.60;23.50;;;;;;21003990;28;20140;-57
2022/08/31 18:52:01;;;;;;;6.97;3.42;;;30.20;22.50;;;;;;21004773;28;20076;-57
2022/08/31 19:02:04;;;;;;;7.25;2.28;;;30.10;21.80;;;;;;21000383;28;20140;-59
2022/08/31 19:12:06;;;;;;;6.57;1.95;;;30.00;21.80;;;;;;21001416;28;20424;-54
2022/08/31 19:22:09;;;;;;;8.50;5.97;;;29.80;21.90;;;;;;20999308;28;20060;-57
2022/08/31 19:32:12;;;;;;;5.50;2.90;;;29.60;22.40;;;;;;20997762;28;20048;-56
2022/08/31 19:42:15;;;;;;;5.95;3.80;;;29.60;21.80;;;;;;20997315;28;20056;-57
2022/08/31 19:52:17;;;;;;;4.35;2.70;;;29.40;23.10;;;;;;20996027;28;20136;-58
2022/08/31 20:02:18;;;;;;;3.38;2.70;;;29.30;22.20;;;;;;20995521;28;20443;-57
2022/08/31 20:12:20;;;;;;;4.15;2.45;;;29.30;23.00;;;;;;20996027;28;20484;-59
2022/08/31 20:22:22;;;;;;;6.30;2.80;;;29.10;23.20;;;;;;20994785;28;20056;-58
2022/08/31 20:32:27;;;;;;;5.45;2.85;;;29.00;23.80;;;;;;20994664;28;20080;-58
2022/08/31 20:42:29;;;;;;;7.68;2.97;;;28.90;24.30;;;;;;20993649;28;20511;-60
2022/08/31 20:52:33;;;;;;;4.75;2.92;;;28.70;25.20;;;;;;20994969;28;20204;-57
2022/08/31 21:02:38;;;;;;;8.55;3.10;;;28.50;26.00;;;;;;21002921;28;20059;-56
2022/08/31 21:12:40;;;;;;;6.30;3.33;;;28.40;26.60;;;;;;21010107;28;20155;-58
2022/08/31 21:22:42;;;;;;;6.50;2.78;;;28.40;27.40;;;;;;21010063;28;20051;-58
2022/08/31 21:32:47;;;;;;;5.85;3.03;;;28.30;27.00;;;;;;21007658;28;20094;-57
2022/08/31 21:42:49;;;;;;;6.55;3.30;;;28.10;27.30;;;;;;21006905;28;20095;-58
2022/08/31 21:52:51;;;;;;;5.82;2.60;;;27.90;27.80;;;;;;21006434;28;20052;-60
2022/08/31 22:02:53;;;;;;;6.97;2.88;;;27.60;27.50;;;;;;21006151;28;20473;-58
2022/08/31 22:12:55;;;;;;;7.25;2.90;;;27.60;27.40;;;;;;21005516;28;20040;-56
2022/08/31 22:22:56;;;;;;;6.45;2.53;;;27.40;27.10;;;;;;21005419;28;20048;-57
2022/08/31 22:32:58;;;;;;;5.38;2.10;;;27.40;25.90;;;;;;21003919;28;20412;-57
2022/08/31 22:43:01;;;;;;;3.72;2.70;;;27.30;25.10;;;;;;21002920;28;20067;-56
2022/08/31 22:53:04;;;;;;;6.88;2.80;;;27.10;26.50;;;;;;21002185;28;20595;-57
2022/08/31 23:03:05;;;;;;;5.18;2.72;;;26.70;28.40;;;;;;21000909;28;20091;-58
2022/08/31 23:13:07;;;;;;;;;;;26.50;27.60;;;;;;21000889;28;20049;-57
2022/08/31 23:23:09;;;;;;;5.40;3.10;;;26.40;26.60;;;;;;20998344;28;19966;-59
2022/08/31 23:33:10;;;;;;;6.85;3.28;;;26.40;24.80;;;;;;20998511;28;20072;-59
2022/08/31 23:43:14;;;;;;;4.25;2.35;;;26.30;24.60;;;;;;20997937;28;20056;-55
2022/08/31 23:53:16;;;;;;;3.85;2.25;;;26.10;25.60;;;;;;20997246;28;20040;-57
